sensor_id;sensor_type;location;lat;lon;timestamp;P1;durP1;ratioP1;P2;durP2;ratioP2
16147;SDS011;8179;59.364;18.018;2022-08-19T00:00:14;37.25;;;33.25;;
16147;SDS011;8179;59.364;18.018;2022-08-19T00:02:40;53.17;;;37.65;;
16147;SDS011;8179;59.364;18.018;2022-08-19T00:05:08;47.58;;;35.53;;
16147;SDS011;8179;59.364;18.018;2022-08-19T00:07:35;47.20;;;42.55;;
16147;SDS011;8179;59.364;18.018;2022-08-19T00:10:02;46.70;;;39.45;;
16147;SDS011;8179;59.364;18.018;2022-08-19T00:12:29;49.30;;;35.47;;
16147;SDS011;8179;59.364;18.018;2022-08-19T00:14:55;55.05;;;40.28;;
16147;SDS011;8179;59.364;18.018;2022-08-19T00:17:22;51.38;;;38.40;;
16147;SDS011;8179;59.364;18.018;2022-08-19T00:19:48;51.53;;;38.17;;
16147;SDS011;8179;59.364;18.018;2022-08-19T00:22:16;63.50;;;39.25;;
16147;SDS011;8179;59.364;18.018;2022-08-19T00:24:43;53.85;;;39.35;;
16147;SDS011;8179;59.364;18.018;2022-08-19T00:27:10;50.80;;;40.58;;
16147;SDS011;8179;59.364;18.018;2022-08-19T00:29:36;59.72;;;40.97;;
16147;SDS011;8179;59.364;18.018;2022-08-19T00:32:03;56.70;;;42.15;;
16147;SDS011;8179;59.364;18.018;2022-08-19T00:34:30;55.63;;;38.08;;
16147;SDS011;8179;59.364;18.018;2022-08-19T00:36:57;54.90;;;39.38;;
16147;SDS011;8179;59.364;18.018;2022-08-19T00:39:26;60.20;;;40.78;;
16147;SDS011;8179;59.364;18.018;2022-08-19T00:41:52;50.88;;;38.50;;
16147;SDS011;8179;59.364;18.018;2022-08-19T00:44:20;48.17;;;42.60;;
16147;SDS011;8179;59.364;18.018;2022-08-19T00:46:47;50.72;;;39.67;;
16147;SDS011;8179;59.364;18.018;2022-08-19T00:49:15;56.15;;;41.95;;
16147;SDS011;8179;59.364;18.018;2022-08-19T00:51:42;47.88;;;38.95;;
16147;SDS011;8179;59.364;18.018;2022-08-19T00:54:09;55.85;;;40.47;;
16147;SDS011;8179;59.364;18.018;2022-08-19T00:56:37;52.35;;;41.53;;
16147;SDS011;8179;59.364;18.018;2022-08-19T00:59:03;46.03;;;37.47;;
16147;SDS011;8179;59.364;18.018;2022-08-19T01:01:34;45.83;;;39.40;;
16147;SDS011;8179;59.364;18.018;2022-08-19T01:04:00;54.60;;;39.70;;
16147;SDS011;8179;59.364;18.018;2022-08-19T01:06:27;49.00;;;43.60;;
16147;SDS011;8179;59.364;18.018;2022-08-19T01:08:53;57.15;;;41.85;;
16147;SDS011;8179;59.364;18.018;2022-08-19T01:11:20;49.20;;;43.63;;
16147;SDS011;8179;59.364;18.018;2022-08-19T01:13:48;48.85;;;40.17;;
16147;SDS011;8179;59.364;18.018;2022-08-19T01:16:17;47.15;;;41.15;;
16147;SDS011;8179;59.364;18.018;2022-08-19T01:18:44;43.78;;;39.03;;
16147;SDS011;8179;59.364;18.018;2022-08-19T01:21:12;56.50;;;40.30;;
16147;SDS011;8179;59.364;18.018;2022-08-19T01:23:43;50.13;;;45.00;;
16147;SDS011;8179;59.364;18.018;2022-08-19T01:26:11;47.85;;;42.33;;
16147;SDS011;8179;59.364;18.018;2022-08-19T01:28:38;45.72;;;40.60;;
16147;SDS011;8179;59.364;18.018;2022-08-19T01:31:05;48.47;;;43.53;;
16147;SDS011;8179;59.364;18.018;2022-08-19T01:33:32;42.88;;;38.58;;
16147;SDS011;8179;59.364;18.018;2022-08-19T01:36:06;51.55;;;42.42;;
16147;SDS011;8179;59.364;18.018;2022-08-19T01:38:34;47.17;;;39.72;;
16147;SDS011;8179;59.364;18.018;2022-08-19T01:41:04;44.38;;;39.80;;
16147;SDS011;8179;59.364;18.018;2022-08-19T01:43:30;46.45;;;41.70;;
16147;SDS011;8179;59.364;18.018;2022-08-19T01:45:57;44.40;;;40.13;;
16147;SDS011;8179;59.364;18.018;2022-08-19T01:48:23;44.60;;;39.88;;
16147;SDS011;8179;59.364;18.018;2022-08-19T01:50:50;45.35;;;38.95;;
16147;SDS011;8179;59.364;18.018;2022-08-19T01:53:16;44.88;;;40.28;;
16147;SDS011;8179;59.364;18.018;2022-08-19T01:55:43;45.42;;;40.58;;
16147;SDS011;8179;59.364;18.018;2022-08-19T01:58:12;46.85;;;42.10;;
16147;SDS011;8179;59.364;18.018;2022-08-19T02:00:40;46.35;;;41.20;;
16147;SDS011;8179;59.364;18.018;2022-08-19T02:03:07;45.78;;;41.42;;
16147;SDS011;8179;59.364;18.018;2022-08-19T02:05:34;47.28;;;39.85;;
16147;SDS011;8179;59.364;18.018;2022-08-19T02:08:00;43.70;;;39.45;;
16147;SDS011;8179;59.364;18.018;2022-08-19T02:10:27;43.40;;;39.05;;
16147;SDS011;8179;59.364;18.018;2022-08-19T02:12:53;48.78;;;41.15;;
16147;SDS011;8179;59.364;18.018;2022-08-19T02:15:21;49.05;;;43.67;;
16147;SDS011;8179;59.364;18.018;2022-08-19T02:17:48;46.80;;;41.40;;
16147;SDS011;8179;59.364;18.018;2022-08-19T02:20:14;50.05;;;44.65;;
16147;SDS011;8179;59.364;18.018;2022-08-19T02:22:41;45.53;;;40.50;;
16147;SDS011;8179;59.364;18.018;2022-08-19T02:25:08;49.30;;;44.08;;
16147;SDS011;8179;59.364;18.018;2022-08-19T02:27:35;51.47;;;46.60;;
16147;SDS011;8179;59.364;18.018;2022-08-19T02:30:03;46.67;;;40.97;;
16147;SDS011;8179;59.364;18.018;2022-08-19T02:32:31;54.47;;;42.72;;
16147;SDS011;8179;59.364;18.018;2022-08-19T02:34:58;54.22;;;44.17;;
16147;SDS011;8179;59.364;18.018;2022-08-19T02:37:24;46.45;;;41.53;;
16147;SDS011;8179;59.364;18.018;2022-08-19T02:40:08;51.53;;;44.22;;
16147;SDS011;8179;59.364;18.018;2022-08-19T02:42:35;52.80;;;47.28;;
16147;SDS011;8179;59.364;18.018;2022-08-19T02:45:01;48.33;;;42.83;;
16147;SDS011;8179;59.364;18.018;2022-08-19T02:47:28;47.17;;;41.85;;
16147;SDS011;8179;59.364;18.018;2022-08-19T02:49:55;49.67;;;42.42;;
16147;SDS011;8179;59.364;18.018;2022-08-19T02:52:22;47.72;;;42.78;;
16147;SDS011;8179;59.364;18.018;2022-08-19T02:54:48;44.42;;;39.75;;
16147;SDS011;8179;59.364;18.018;2022-08-19T02:57:15;49.28;;;41.25;;
16147;SDS011;8179;59.364;18.018;2022-08-19T02:59:41;52.92;;;42.10;;
16147;SDS011;8179;59.364;18.018;2022-08-19T03:02:08;45.85;;;40.17;;
16147;SDS011;8179;59.364;18.018;2022-08-19T03:04:34;49.05;;;43.13;;
16147;SDS011;8179;59.364;18.018;2022-08-19T03:07:02;43.35;;;38.78;;
16147;SDS011;8179;59.364;18.018;2022-08-19T03:09:28;48.05;;;38.70;;
16147;SDS011;8179;59.364;18.018;2022-08-19T03:11:55;43.97;;;38.83;;
16147;SDS011;8179;59.364;18.018;2022-08-19T03:14:21;44.63;;;39.85;;
16147;SDS011;8179;59.364;18.018;2022-08-19T03:16:49;45.28;;;39.85;;
16147;SDS011;8179;59.364;18.018;2022-08-19T03:19:16;44.03;;;39.58;;
16147;SDS011;8179;59.364;18.018;2022-08-19T03:21:43;44.03;;;39.40;;
16147;SDS011;8179;59.364;18.018;2022-08-19T03:24:12;44.28;;;39.75;;
16147;SDS011;8179;59.364;18.018;2022-08-19T03:26:39;43.95;;;39.35;;
16147;SDS011;8179;59.364;18.018;2022-08-19T03:29:06;42.97;;;38.53;;
16147;SDS011;8179;59.364;18.018;2022-08-19T03:31:34;39.83;;;35.55;;
16147;SDS011;8179;59.364;18.018;2022-08-19T03:34:00;42.33;;;37.78;;
16147;SDS011;8179;59.364;18.018;2022-08-19T03:36:27;42.83;;;38.25;;
16147;SDS011;8179;59.364;18.018;2022-08-19T03:38:54;41.00;;;36.90;;
16147;SDS011;8179;59.364;18.018;2022-08-19T03:41:23;45.13;;;40.45;;
16147;SDS011;8179;59.364;18.018;2022-08-19T03:43:50;50.55;;;45.15;;
16147;SDS011;8179;59.364;18.018;2022-08-19T03:46:17;46.67;;;41.63;;
16147;SDS011;8179;59.364;18.018;2022-08-19T03:48:45;45.90;;;41.10;;
16147;SDS011;8179;59.364;18.018;2022-08-19T03:51:15;51.53;;;41.38;;
16147;SDS011;8179;59.364;18.018;2022-08-19T03:53:42;45.17;;;40.72;;
16147;SDS011;8179;59.364;18.018;2022-08-19T03:56:08;46.58;;;41.63;;
16147;SDS011;8179;59.364;18.018;2022-08-19T03:58:36;45.83;;;38.40;;
16147;SDS011;8179;59.364;18.018;2022-08-19T04:01:06;40.67;;;36.35;;
16147;SDS011;8179;59.364;18.018;2022-08-19T04:03:33;44.05;;;36.30;;
16147;SDS011;8179;59.364;18.018;2022-08-19T04:06:08;39.13;;;35.00;;
16147;SDS011;8179;59.364;18.018;2022-08-19T04:08:34;44.10;;;37.33;;
16147;SDS011;8179;59.364;18.018;2022-08-19T04:11:01;41.13;;;36.90;;
16147;SDS011;8179;59.364;18.018;2022-08-19T04:13:27;42.65;;;38.22;;
16147;SDS011;8179;59.364;18.018;2022-08-19T04:15:55;46.35;;;41.70;;
16147;SDS011;8179;59.364;18.018;2022-08-19T04:18:21;41.00;;;37.03;;
16147;SDS011;8179;59.364;18.018;2022-08-19T04:20:47;40.88;;;36.75;;
16147;SDS011;8179;59.364;18.018;2022-08-19T04:23:14;44.25;;;39.45;;
16147;SDS011;8179;59.364;18.018;2022-08-19T04:25:41;39.67;;;35.35;;
16147;SDS011;8179;59.364;18.018;2022-08-19T04:28:08;50.85;;;45.25;;
16147;SDS011;8179;59.364;18.018;2022-08-19T04:30:39;45.47;;;40.95;;
16147;SDS011;8179;59.364;18.018;2022-08-19T04:33:07;47.22;;;42.67;;
16147;SDS011;8179;59.364;18.018;2022-08-19T04:35:34;45.03;;;40.30;;
16147;SDS011;8179;59.364;18.018;2022-08-19T04:38:01;42.83;;;38.63;;
16147;SDS011;8179;59.364;18.018;2022-08-19T04:40:27;44.67;;;40.42;;
16147;SDS011;8179;59.364;18.018;2022-08-19T04:43:11;43.20;;;39.00;;
16147;SDS011;8179;59.364;18.018;2022-08-19T04:45:38;47.25;;;42.28;;
16147;SDS011;8179;59.364;18.018;2022-08-19T04:48:06;48.42;;;43.38;;
16147;SDS011;8179;59.364;18.018;2022-08-19T04:50:32;47.95;;;43.10;;
16147;SDS011;8179;59.364;18.018;2022-08-19T04:52:59;48.97;;;44.38;;
16147;SDS011;8179;59.364;18.018;2022-08-19T04:55:25;45.50;;;40.67;;
16147;SDS011;8179;59.364;18.018;2022-08-19T04:57:52;43.58;;;39.05;;
16147;SDS011;8179;59.364;18.018;2022-08-19T05:00:18;46.50;;;41.65;;
16147;SDS011;8179;59.364;18.018;2022-08-19T05:02:44;46.58;;;42.17;;
16147;SDS011;8179;59.364;18.018;2022-08-19T05:05:12;46.83;;;42.53;;
16147;SDS011;8179;59.364;18.018;2022-08-19T05:07:39;45.45;;;40.20;;
16147;SDS011;8179;59.364;18.018;2022-08-19T05:10:06;48.22;;;44.10;;
16147;SDS011;8179;59.364;18.018;2022-08-19T05:12:33;44.50;;;39.42;;
16147;SDS011;8179;59.364;18.018;2022-08-19T05:14:59;41.08;;;37.25;;
16147;SDS011;8179;59.364;18.018;2022-08-19T05:17:26;45.58;;;41.00;;
16147;SDS011;8179;59.364;18.018;2022-08-19T05:19:52;47.22;;;42.38;;
16147;SDS011;8179;59.364;18.018;2022-08-19T05:22:38;46.80;;;42.25;;
16147;SDS011;8179;59.364;18.018;2022-08-19T05:25:05;43.35;;;39.03;;
16147;SDS011;8179;59.364;18.018;2022-08-19T05:27:32;41.60;;;38.08;;
16147;SDS011;8179;59.364;18.018;2022-08-19T05:29:58;39.58;;;36.15;;
16147;SDS011;8179;59.364;18.018;2022-08-19T05:32:25;40.28;;;36.50;;
16147;SDS011;8179;59.364;18.018;2022-08-19T05:34:51;42.70;;;39.03;;
16147;SDS011;8179;59.364;18.018;2022-08-19T05:37:17;46.55;;;42.70;;
16147;SDS011;8179;59.364;18.018;2022-08-19T05:39:45;43.53;;;39.78;;
16147;SDS011;8179;59.364;18.018;2022-08-19T05:42:12;42.85;;;38.85;;
16147;SDS011;8179;59.364;18.018;2022-08-19T05:44:39;39.78;;;35.83;;
16147;SDS011;8179;59.364;18.018;2022-08-19T05:47:08;36.58;;;33.35;;
16147;SDS011;8179;59.364;18.018;2022-08-19T05:49:35;37.95;;;34.58;;
16147;SDS011;8179;59.364;18.018;2022-08-19T05:52:03;38.55;;;34.88;;
16147;SDS011;8179;59.364;18.018;2022-08-19T05:54:29;37.47;;;34.20;;
16147;SDS011;8179;59.364;18.018;2022-08-19T05:56:57;32.70;;;29.65;;
16147;SDS011;8179;59.364;18.018;2022-08-19T05:59:24;28.25;;;25.45;;
16147;SDS011;8179;59.364;18.018;2022-08-19T06:01:51;26.90;;;24.30;;
16147;SDS011;8179;59.364;18.018;2022-08-19T06:04:19;28.70;;;24.63;;
16147;SDS011;8179;59.364;18.018;2022-08-19T06:06:46;30.13;;;24.20;;
16147;SDS011;8179;59.364;18.018;2022-08-19T06:09:13;26.05;;;23.65;;
16147;SDS011;8179;59.364;18.018;2022-08-19T06:11:41;23.90;;;21.65;;
16147;SDS011;8179;59.364;18.018;2022-08-19T06:14:10;21.58;;;19.35;;
16147;SDS011;8179;59.364;18.018;2022-08-19T06:16:38;22.13;;;19.85;;
16147;SDS011;8179;59.364;18.018;2022-08-19T06:19:06;21.80;;;19.40;;
16147;SDS011;8179;59.364;18.018;2022-08-19T06:21:33;20.63;;;18.63;;
16147;SDS011;8179;59.364;18.018;2022-08-19T06:24:02;22.77;;;18.73;;
16147;SDS011;8179;59.364;18.018;2022-08-19T06:26:32;19.20;;;17.38;;
16147;SDS011;8179;59.364;18.018;2022-08-19T06:28:59;19.25;;;17.58;;
16147;SDS011;8179;59.364;18.018;2022-08-19T06:31:29;21.42;;;18.15;;
16147;SDS011;8179;59.364;18.018;2022-08-19T06:33:58;20.33;;;17.52;;
16147;SDS011;8179;59.364;18.018;2022-08-19T06:36:26;18.73;;;16.92;;
16147;SDS011;8179;59.364;18.018;2022-08-19T06:38:56;17.58;;;16.08;;
16147;SDS011;8179;59.364;18.018;2022-08-19T06:41:23;18.50;;;16.70;;
16147;SDS011;8179;59.364;18.018;2022-08-19T06:43:49;17.23;;;15.93;;
16147;SDS011;8179;59.364;18.018;2022-08-19T06:46:17;19.95;;;17.67;;
16147;SDS011;8179;59.364;18.018;2022-08-19T06:48:44;20.92;;;18.73;;
16147;SDS011;8179;59.364;18.018;2022-08-19T06:51:12;18.77;;;16.95;;
16147;SDS011;8179;59.364;18.018;2022-08-19T06:53:40;22.70;;;20.63;;
16147;SDS011;8179;59.364;18.018;2022-08-19T06:56:12;20.92;;;18.90;;
16147;SDS011;8179;59.364;18.018;2022-08-19T06:58:38;20.27;;;18.45;;
16147;SDS011;8179;59.364;18.018;2022-08-19T07:01:05;20.92;;;18.80;;
16147;SDS011;8179;59.364;18.018;2022-08-19T07:03:32;18.58;;;16.88;;
16147;SDS011;8179;59.364;18.018;2022-08-19T07:06:03;19.42;;;17.65;;
16147;SDS011;8179;59.364;18.018;2022-08-19T07:08:30;21.98;;;16.98;;
16147;SDS011;8179;59.364;18.018;2022-08-19T07:10:56;21.13;;;18.98;;
16147;SDS011;8179;59.364;18.018;2022-08-19T07:13:23;20.67;;;18.77;;
16147;SDS011;8179;59.364;18.018;2022-08-19T07:15:49;22.60;;;18.95;;
16147;SDS011;8179;59.364;18.018;2022-08-19T07:18:16;21.08;;;19.05;;
16147;SDS011;8179;59.364;18.018;2022-08-19T07:20:43;25.73;;;19.27;;
16147;SDS011;8179;59.364;18.018;2022-08-19T07:23:11;19.55;;;17.77;;
16147;SDS011;8179;59.364;18.018;2022-08-19T07:25:38;19.27;;;17.27;;
16147;SDS011;8179;59.364;18.018;2022-08-19T07:28:04;20.05;;;17.98;;
16147;SDS011;8179;59.364;18.018;2022-08-19T07:30:32;19.70;;;16.80;;
16147;SDS011;8179;59.364;18.018;2022-08-19T07:32:58;17.48;;;15.68;;
16147;SDS011;8179;59.364;18.018;2022-08-19T07:35:25;21.90;;;16.52;;
16147;SDS011;8179;59.364;18.018;2022-08-19T07:37:53;17.50;;;16.00;;
16147;SDS011;8179;59.364;18.018;2022-08-19T07:40:21;16.73;;;15.23;;
16147;SDS011;8179;59.364;18.018;2022-08-19T07:42:47;17.65;;;15.43;;
16147;SDS011;8179;59.364;18.018;2022-08-19T07:45:13;17.77;;;14.50;;
16147;SDS011;8179;59.364;18.018;2022-08-19T07:47:41;16.05;;;14.45;;
16147;SDS011;8179;59.364;18.018;2022-08-19T07:50:08;20.70;;;17.10;;
16147;SDS011;8179;59.364;18.018;2022-08-19T07:52:36;19.25;;;16.38;;
16147;SDS011;8179;59.364;18.018;2022-08-19T07:55:04;15.50;;;13.95;;
16147;SDS011;8179;59.364;18.018;2022-08-19T07:57:31;18.25;;;15.13;;
16147;SDS011;8179;59.364;18.018;2022-08-19T07:59:58;16.80;;;15.18;;
16147;SDS011;8179;59.364;18.018;2022-08-19T08:02:24;15.90;;;13.93;;
16147;SDS011;8179;59.364;18.018;2022-08-19T08:04:51;19.00;;;14.43;;
16147;SDS011;8179;59.364;18.018;2022-08-19T08:07:34;17.08;;;12.73;;
16147;SDS011;8179;59.364;18.018;2022-08-19T08:10:18;16.98;;;12.65;;
16147;SDS011;8179;59.364;18.018;2022-08-19T08:12:46;18.88;;;13.68;;
16147;SDS011;8179;59.364;18.018;2022-08-19T08:15:14;14.50;;;12.27;;
16147;SDS011;8179;59.364;18.018;2022-08-19T08:17:44;16.45;;;13.13;;
16147;SDS011;8179;59.364;18.018;2022-08-19T08:20:11;13.75;;;12.50;;
16147;SDS011;8179;59.364;18.018;2022-08-19T08:22:42;13.27;;;12.02;;
16147;SDS011;8179;59.364;18.018;2022-08-19T08:25:25;17.10;;;11.07;;
16147;SDS011;8179;59.364;18.018;2022-08-19T08:27:53;13.23;;;11.85;;
16147;SDS011;8179;59.364;18.018;2022-08-19T08:30:22;13.32;;;12.23;;
16147;SDS011;8179;59.364;18.018;2022-08-19T08:32:49;14.80;;;11.40;;
16147;SDS011;8179;59.364;18.018;2022-08-19T08:35:18;13.60;;;12.40;;
16147;SDS011;8179;59.364;18.018;2022-08-19T08:37:45;12.38;;;10.80;;
16147;SDS011;8179;59.364;18.018;2022-08-19T08:40:16;14.18;;;10.82;;
16147;SDS011;8179;59.364;18.018;2022-08-19T08:42:46;14.98;;;11.20;;
16147;SDS011;8179;59.364;18.018;2022-08-19T08:45:17;12.68;;;11.50;;
16147;SDS011;8179;59.364;18.018;2022-08-19T08:47:46;16.40;;;12.32;;
16147;SDS011;8179;59.364;18.018;2022-08-19T08:50:16;17.23;;;11.45;;
16147;SDS011;8179;59.364;18.018;2022-08-19T08:52:44;12.00;;;10.63;;
16147;SDS011;8179;59.364;18.018;2022-08-19T08:55:13;13.20;;;11.02;;
16147;SDS011;8179;59.364;18.018;2022-08-19T08:57:42;15.00;;;11.25;;
16147;SDS011;8179;59.364;18.018;2022-08-19T09:00:11;15.23;;;13.65;;
16147;SDS011;8179;59.364;18.018;2022-08-19T09:02:42;12.35;;;10.95;;
16147;SDS011;8179;59.364;18.018;2022-08-19T09:05:09;11.43;;;10.05;;
16147;SDS011;8179;59.364;18.018;2022-08-19T09:07:40;10.55;;;9.55;;
16147;SDS011;8179;59.364;18.018;2022-08-19T09:10:09;18.90;;;10.60;;
16147;SDS011;8179;59.364;18.018;2022-08-19T09:12:39;19.13;;;11.27;;
16147;SDS011;8179;59.364;18.018;2022-08-19T09:15:12;13.10;;;9.48;;
16147;SDS011;8179;59.364;18.018;2022-08-19T09:17:39;11.30;;;10.30;;
16147;SDS011;8179;59.364;18.018;2022-08-19T09:20:19;10.98;;;9.80;;
16147;SDS011;8179;59.364;18.018;2022-08-19T09:22:46;11.88;;;10.13;;
16147;SDS011;8179;59.364;18.018;2022-08-19T09:25:15;11.18;;;10.07;;
16147;SDS011;8179;59.364;18.018;2022-08-19T09:27:42;12.68;;;11.32;;
16147;SDS011;8179;59.364;18.018;2022-08-19T09:30:15;16.20;;;11.52;;
16147;SDS011;8179;59.364;18.018;2022-08-19T09:32:42;15.70;;;10.55;;
16147;SDS011;8179;59.364;18.018;2022-08-19T09:35:11;12.13;;;10.35;;
16147;SDS011;8179;59.364;18.018;2022-08-19T09:37:38;14.82;;;9.60;;
16147;SDS011;8179;59.364;18.018;2022-08-19T09:40:04;16.33;;;11.43;;
16147;SDS011;8179;59.364;18.018;2022-08-19T09:42:32;17.58;;;9.85;;
16147;SDS011;8179;59.364;18.018;2022-08-19T09:44:58;11.02;;;10.02;;
16147;SDS011;8179;59.364;18.018;2022-08-19T09:47:25;12.15;;;11.15;;
16147;SDS011;8179;59.364;18.018;2022-08-19T09:49:51;14.85;;;10.65;;
16147;SDS011;8179;59.364;18.018;2022-08-19T09:52:19;19.30;;;11.80;;
16147;SDS011;8179;59.364;18.018;2022-08-19T09:54:46;18.08;;;10.75;;
16147;SDS011;8179;59.364;18.018;2022-08-19T09:57:12;11.85;;;10.43;;
16147;SDS011;8179;59.364;18.018;2022-08-19T09:59:38;12.93;;;10.35;;
16147;SDS011;8179;59.364;18.018;2022-08-19T10:02:05;15.50;;;10.10;;
16147;SDS011;8179;59.364;18.018;2022-08-19T10:04:31;13.70;;;10.15;;
16147;SDS011;8179;59.364;18.018;2022-08-19T10:07:12;12.98;;;10.82;;
16147;SDS011;8179;59.364;18.018;2022-08-19T10:09:40;17.92;;;11.07;;
16147;SDS011;8179;59.364;18.018;2022-08-19T10:12:07;14.38;;;9.90;;
16147;SDS011;8179;59.364;18.018;2022-08-19T10:14:34;13.70;;;11.27;;
16147;SDS011;8179;59.364;18.018;2022-08-19T10:17:00;11.48;;;9.98;;
16147;SDS011;8179;59.364;18.018;2022-08-19T10:19:27;13.02;;;9.57;;
16147;SDS011;8179;59.364;18.018;2022-08-19T10:21:57;11.77;;;10.40;;
16147;SDS011;8179;59.364;18.018;2022-08-19T10:24:23;11.02;;;9.88;;
16147;SDS011;8179;59.364;18.018;2022-08-19T10:26:52;17.02;;;10.50;;
16147;SDS011;8179;59.364;18.018;2022-08-19T10:29:18;12.55;;;9.35;;
16147;SDS011;8179;59.364;18.018;2022-08-19T10:31:44;10.65;;;9.38;;
16147;SDS011;8179;59.364;18.018;2022-08-19T10:34:12;11.32;;;9.90;;
16147;SDS011;8179;59.364;18.018;2022-08-19T10:36:38;11.45;;;10.35;;
16147;SDS011;8179;59.364;18.018;2022-08-19T10:39:06;13.18;;;9.75;;
16147;SDS011;8179;59.364;18.018;2022-08-19T10:41:33;13.02;;;10.93;;
16147;SDS011;8179;59.364;18.018;2022-08-19T10:44:03;13.98;;;9.43;;
16147;SDS011;8179;59.364;18.018;2022-08-19T10:46:30;10.93;;;9.55;;
16147;SDS011;8179;59.364;18.018;2022-08-19T10:48:57;10.02;;;9.13;;
16147;SDS011;8179;59.364;18.018;2022-08-19T10:51:24;13.18;;;9.68;;
16147;SDS011;8179;59.364;18.018;2022-08-19T10:54:08;13.77;;;10.27;;
16147;SDS011;8179;59.364;18.018;2022-08-19T10:56:34;11.63;;;10.27;;
16147;SDS011;8179;59.364;18.018;2022-08-19T10:59:21;10.13;;;8.85;;
16147;SDS011;8179;59.364;18.018;2022-08-19T11:01:48;12.43;;;10.57;;
16147;SDS011;8179;59.364;18.018;2022-08-19T11:04:15;14.65;;;9.73;;
16147;SDS011;8179;59.364;18.018;2022-08-19T11:06:42;12.82;;;9.80;;
16147;SDS011;8179;59.364;18.018;2022-08-19T11:09:10;18.75;;;10.20;;
16147;SDS011;8179;59.364;18.018;2022-08-19T11:11:37;13.20;;;9.57;;
16147;SDS011;8179;59.364;18.018;2022-08-19T11:14:06;15.45;;;9.75;;
16147;SDS011;8179;59.364;18.018;2022-08-19T11:16:34;15.27;;;9.30;;
16147;SDS011;8179;59.364;18.018;2022-08-19T11:19:01;11.90;;;9.95;;
16147;SDS011;8179;59.364;18.018;2022-08-19T11:21:28;15.02;;;9.23;;
16147;SDS011;8179;59.364;18.018;2022-08-19T11:23:58;10.40;;;9.45;;
16147;SDS011;8179;59.364;18.018;2022-08-19T11:26:27;9.27;;;8.32;;
16147;SDS011;8179;59.364;18.018;2022-08-19T11:28:53;9.82;;;8.40;;
16147;SDS011;8179;59.364;18.018;2022-08-19T11:31:22;10.20;;;9.18;;
16147;SDS011;8179;59.364;18.018;2022-08-19T11:33:50;17.40;;;9.93;;
16147;SDS011;8179;59.364;18.018;2022-08-19T11:36:19;11.57;;;9.32;;
16147;SDS011;8179;59.364;18.018;2022-08-19T11:38:46;10.93;;;9.77;;
16147;SDS011;8179;59.364;18.018;2022-08-19T11:41:14;10.68;;;9.68;;
16147;SDS011;8179;59.364;18.018;2022-08-19T11:43:41;10.07;;;9.07;;
16147;SDS011;8179;59.364;18.018;2022-08-19T11:46:08;11.25;;;9.23;;
16147;SDS011;8179;59.364;18.018;2022-08-19T11:48:35;10.63;;;9.23;;
16147;SDS011;8179;59.364;18.018;2022-08-19T11:51:05;10.95;;;9.45;;
16147;SDS011;8179;59.364;18.018;2022-08-19T11:53:32;10.85;;;9.90;;
16147;SDS011;8179;59.364;18.018;2022-08-19T11:56:02;10.63;;;8.95;;
16147;SDS011;8179;59.364;18.018;2022-08-19T11:58:28;12.85;;;11.27;;
16147;SDS011;8179;59.364;18.018;2022-08-19T12:00:55;10.02;;;9.02;;
16147;SDS011;8179;59.364;18.018;2022-08-19T12:03:21;12.32;;;8.85;;
16147;SDS011;8179;59.364;18.018;2022-08-19T12:05:49;9.98;;;9.15;;
16147;SDS011;8179;59.364;18.018;2022-08-19T12:08:18;10.07;;;8.38;;
16147;SDS011;8179;59.364;18.018;2022-08-19T12:10:44;10.07;;;8.13;;
16147;SDS011;8179;59.364;18.018;2022-08-19T12:13:11;11.77;;;9.52;;
16147;SDS011;8179;59.364;18.018;2022-08-19T12:15:39;11.15;;;10.00;;
16147;SDS011;8179;59.364;18.018;2022-08-19T12:18:06;12.50;;;10.32;;
16147;SDS011;8179;59.364;18.018;2022-08-19T12:20:34;11.70;;;10.00;;
16147;SDS011;8179;59.364;18.018;2022-08-19T12:23:01;11.65;;;10.48;;
16147;SDS011;8179;59.364;18.018;2022-08-19T12:25:29;9.48;;;8.88;;
16147;SDS011;8179;59.364;18.018;2022-08-19T12:27:55;12.13;;;9.15;;
16147;SDS011;8179;59.364;18.018;2022-08-19T12:30:22;11.35;;;10.23;;
16147;SDS011;8179;59.364;18.018;2022-08-19T12:32:48;16.13;;;10.63;;
16147;SDS011;8179;59.364;18.018;2022-08-19T12:35:16;13.88;;;9.93;;
16147;SDS011;8179;59.364;18.018;2022-08-19T12:37:42;10.27;;;8.63;;
16147;SDS011;8179;59.364;18.018;2022-08-19T12:40:10;11.52;;;8.75;;
16147;SDS011;8179;59.364;18.018;2022-08-19T12:42:38;9.73;;;8.90;;
16147;SDS011;8179;59.364;18.018;2022-08-19T12:45:07;13.68;;;9.27;;
16147;SDS011;8179;59.364;18.018;2022-08-19T12:47:34;11.68;;;8.63;;
16147;SDS011;8179;59.364;18.018;2022-08-19T12:50:00;11.50;;;8.88;;
16147;SDS011;8179;59.364;18.018;2022-08-19T12:52:27;12.20;;;8.20;;
16147;SDS011;8179;59.364;18.018;2022-08-19T12:54:54;12.13;;;7.82;;
16147;SDS011;8179;59.364;18.018;2022-08-19T12:57:21;18.50;;;8.68;;
16147;SDS011;8179;59.364;18.018;2022-08-19T12:59:51;8.80;;;7.57;;
16147;SDS011;8179;59.364;18.018;2022-08-19T13:02:18;10.30;;;8.13;;
16147;SDS011;8179;59.364;18.018;2022-08-19T13:04:44;10.90;;;8.52;;
16147;SDS011;8179;59.364;18.018;2022-08-19T13:07:11;9.85;;;9.02;;
16147;SDS011;8179;59.364;18.018;2022-08-19T13:09:37;13.25;;;8.98;;
16147;SDS011;8179;59.364;18.018;2022-08-19T13:12:06;12.48;;;8.52;;
16147;SDS011;8179;59.364;18.018;2022-08-19T13:14:38;11.27;;;8.15;;
16147;SDS011;8179;59.364;18.018;2022-08-19T13:17:06;10.27;;;8.80;;
16147;SDS011;8179;59.364;18.018;2022-08-19T13:19:35;16.75;;;9.13;;
16147;SDS011;8179;59.364;18.018;2022-08-19T13:22:01;12.00;;;9.68;;
16147;SDS011;8179;59.364;18.018;2022-08-19T13:24:28;10.40;;;9.32;;
16147;SDS011;8179;59.364;18.018;2022-08-19T13:26:54;13.45;;;9.35;;
16147;SDS011;8179;59.364;18.018;2022-08-19T13:29:21;9.43;;;8.60;;
16147;SDS011;8179;59.364;18.018;2022-08-19T13:32:04;11.32;;;10.00;;
16147;SDS011;8179;59.364;18.018;2022-08-19T13:34:50;13.57;;;10.15;;
16147;SDS011;8179;59.364;18.018;2022-08-19T13:37:16;14.65;;;10.25;;
16147;SDS011;8179;59.364;18.018;2022-08-19T13:40:03;10.05;;;8.98;;
16147;SDS011;8179;59.364;18.018;2022-08-19T13:42:29;12.15;;;9.63;;
16147;SDS011;8179;59.364;18.018;2022-08-19T13:44:56;10.48;;;9.45;;
16147;SDS011;8179;59.364;18.018;2022-08-19T13:47:23;10.75;;;9.80;;
16147;SDS011;8179;59.364;18.018;2022-08-19T13:49:53;15.00;;;9.65;;
16147;SDS011;8179;59.364;18.018;2022-08-19T13:52:19;17.95;;;9.65;;
16147;SDS011;8179;59.364;18.018;2022-08-19T13:54:46;13.52;;;9.90;;
16147;SDS011;8179;59.364;18.018;2022-08-19T13:57:13;11.60;;;10.05;;
16147;SDS011;8179;59.364;18.018;2022-08-19T13:59:39;12.88;;;9.45;;
16147;SDS011;8179;59.364;18.018;2022-08-19T14:02:06;12.25;;;11.13;;
16147;SDS011;8179;59.364;18.018;2022-08-19T14:04:32;13.75;;;9.40;;
16147;SDS011;8179;59.364;18.018;2022-08-19T14:07:00;13.20;;;9.88;;
16147;SDS011;8179;59.364;18.018;2022-08-19T14:09:26;11.25;;;9.90;;
16147;SDS011;8179;59.364;18.018;2022-08-19T14:11:53;14.20;;;12.38;;
16147;SDS011;8179;59.364;18.018;2022-08-19T14:14:20;19.77;;;11.43;;
16147;SDS011;8179;59.364;18.018;2022-08-19T14:16:46;16.17;;;13.02;;
16147;SDS011;8179;59.364;18.018;2022-08-19T14:19:13;11.70;;;10.80;;
16147;SDS011;8179;59.364;18.018;2022-08-19T14:21:39;11.30;;;9.73;;
16147;SDS011;8179;59.364;18.018;2022-08-19T14:24:07;16.48;;;10.57;;
16147;SDS011;8179;59.364;18.018;2022-08-19T14:26:34;14.63;;;9.75;;
16147;SDS011;8179;59.364;18.018;2022-08-19T14:29:00;12.55;;;10.13;;